DFFD/OUA METAR and TAF weather

Enter ICAO airport designator
Station Type Date Time Source
DFFD METAR 2023/02/04 01:00 UTC NOAA

DFFD 040100Z 01006KT CAVOK 26/00 Q1013 NOSIG


Station Type Date Time Source
DFFD Decoded METAR 2023/02/04 01:00 UTC NOAA

Ouagadougou, Burkina Faso (DFFD) 12-21N 001-31W 306M
Feb 03, 2023 - 08:00 PM EST / 2023.02.04 0100 UTC
Wind: from the N (010 degrees) at 7 MPH (6 KT):0
Visibility: greater than 7 mile(s):0
Temperature: 78 F (26 C)
Dew Point: 32 F (0 C)
Relative Humidity: 18%
Pressure (altimeter): 29.91 in. Hg (1013 hPa)
ob: DFFD 040100Z 01006KT CAVOK 26/00 Q1013 NOSIG
cycle: 1

Station Type Date Time Source
DFFD TAF 2023/02/03 18:04 UTC NOAA

TAF DFFD 031700Z 0318/0424 03008KT 8000 NSC
TEMPO 0318/0321 4000 HZ
TEMPO 0406/0410 3500 HZ

Example: see airport list